Time;durP1;ratioP1;P1;durP2;ratioP2;P2;SDS_P1;SDS_P2;PMS_P1;PMS_P2;Temp;Humidity;BMP_temperature;BMP_pressure;BME280_temperature;BME280_humidity;BME280_pressure;Samples;Min_cycle;Max_cycle;Signal;HPM_P1;HPM_P2
2023/03/25 00:00:20;;;;;;;13.23;7.93;;;;;;;10.17;72.72;98232.13;5012224;28;20046;-79
2023/03/25 00:02:51;;;;;;;14.32;8.02;;;;;;;10.35;72.94;98209.66;4980126;28;20050;-80
2023/03/25 00:05:19;;;;;;;14.80;8.68;;;;;;;10.29;73.05;98228.97;5030288;28;20073;-79
2023/03/25 00:07:48;;;;;;;18.10;8.52;;;;;;;10.27;73.52;98220.38;5000262;28;20450;-78
2023/03/25 00:10:14;;;;;;;18.05;8.95;;;;;;;9.89;73.41;98223.25;4999519;28;20480;-78
2023/03/25 00:12:41;;;;;;;18.23;8.80;;;;;;;10.15;73.53;98225.34;4985858;28;20044;-75
2023/03/25 00:15:08;;;;;;;19.40;9.25;;;;;;;10.09;73.95;98212.84;5055800;28;20040;-77
2023/03/25 00:17:37;;;;;;;18.40;8.55;;;;;;;10.27;74.21;98207.94;5038900;28;20198;-77
2023/03/25 00:20:07;;;;;;;19.33;10.90;;;;;;;10.12;74.35;98209.81;5039010;28;20048;-77
2023/03/25 00:22:39;;;;;;;24.30;11.27;;;;;;;9.92;73.72;98203.47;5056099;28;20048;-77
2023/03/25 00:25:17;;;;;;;15.20;8.65;;;;;;;10.41;74.07;98212.31;5022313;28;20142;-77
2023/03/25 00:27:45;;;;;;;14.65;8.85;;;;;;;10.02;73.47;98207.44;5073415;28;20059;-77
2023/03/25 00:30:11;;;;;;;13.85;8.98;;;;;;;10.03;73.95;98205.63;5006251;28;20451;-78
2023/03/25 00:32:38;;;;;;;15.02;8.68;;;;;;;9.75;74.08;98199.41;5006064;28;20110;-78
2023/03/25 00:35:05;;;;;;;15.93;9.25;;;;;;;9.97;74.13;98204.56;5022413;28;20043;-78
2023/03/25 00:37:31;;;;;;;12.50;7.80;;;;;;;9.79;73.62;98200.69;4997060;28;20045;-78
2023/03/25 00:39:57;;;;;;;12.98;7.68;;;;;;;9.74;74.21;98193.31;4995395;28;20057;-79
2023/03/25 00:42:28;;;;;;;17.80;7.97;;;;;;;9.76;74.05;98190.47;4979436;28;20053;-80
2023/03/25 00:44:54;;;;;;;16.65;8.60;;;;;;;9.74;74.06;98171.25;4980249;28;20048;-80
2023/03/25 00:47:21;;;;;;;13.80;7.97;;;;;;;9.72;74.82;98166.16;4979572;28;20131;-79
2023/03/25 00:49:48;;;;;;;15.60;8.57;;;;;;;9.90;74.88;98186.94;4979803;28;20708;-80
2023/03/25 00:52:14;;;;;;;15.40;9.57;;;;;;;9.78;75.28;98162.75;5028711;28;20057;-78
2023/03/25 00:54:40;;;;;;;15.32;9.05;;;;;;;9.75;75.42;98157.81;5013390;28;20041;-77
2023/03/25 00:57:06;;;;;;;14.32;8.75;;;;;;;9.50;75.54;98142.47;4981840;28;20061;-79
2023/03/25 00:59:32;;;;;;;16.55;9.00;;;;;;;9.68;75.50;98174.66;4982018;28;20125;-76
2023/03/25 01:01:59;;;;;;;16.20;9.37;;;;;;;9.71;75.33;98167.19;4965850;28;20130;-80
2023/03/25 01:04:26;;;;;;;16.02;8.57;;;;;;;9.59;75.31;98150.13;4980955;28;20041;-80
2023/03/25 01:06:53;;;;;;;13.55;7.38;;;;;;;9.59;75.75;98171.34;4963442;28;20045;-80
2023/03/25 01:09:20;;;;;;;15.30;8.45;;;;;;;9.57;75.76;98164.56;5033276;28;20048;-79
2023/03/25 01:11:48;;;;;;;17.40;9.43;;;;;;;9.75;76.67;98131.31;5070465;28;20033;-75
2023/03/25 01:14:23;;;;;;;13.45;8.05;;;;;;;10.14;76.59;98146.81;5052335;28;20497;-77
2023/03/25 01:16:49;;;;;;;15.52;8.85;;;;;;;9.63;76.46;98156.69;5053289;28;20519;-77
2023/03/25 01:19:15;;;;;;;15.20;8.60;;;;;;;9.72;76.10;98142.28;5004009;28;20182;-77
2023/03/25 01:21:41;;;;;;;14.32;8.95;;;;;;;9.65;76.04;98152.03;5020443;28;20107;-76
2023/03/25 01:24:09;;;;;;;15.30;8.50;;;;;;;9.84;76.22;98135.47;5021490;28;20049;-76
2023/03/25 01:26:35;;;;;;;13.60;9.00;;;;;;;9.53;76.10;98137.59;5037996;28;20051;-79
2023/03/25 01:29:01;;;;;;;17.30;8.98;;;;;;;9.78;76.27;98122.16;5021638;28;20387;-77
2023/03/25 01:31:28;;;;;;;16.20;8.98;;;;;;;9.50;76.26;98124.72;5037916;28;20505;-79
2023/03/25 01:33:58;;;;;;;14.77;8.77;;;;;;;9.97;77.06;98132.97;5038333;28;20040;-80
2023/03/25 01:36:28;;;;;;;16.13;8.88;;;;;;;9.64;76.89;98121.22;5072209;28;20051;-78
2023/03/25 01:38:54;;;;;;;17.98;9.73;;;;;;;9.79;76.35;98127.25;5022088;28;20493;-78
2023/03/25 01:41:20;;;;;;;18.80;9.23;;;;;;;9.75;75.90;98133.13;5054622;28;20455;-78
2023/03/25 01:44:06;;;;;;;15.00;9.55;;;;;;;10.29;75.78;98118.34;5021343;28;20158;-77
2023/03/25 01:46:33;;;;;;;18.27;9.32;;;;;;;9.78;75.26;98114.19;5037475;28;20051;-77
2023/03/25 01:49:01;;;;;;;17.45;9.48;;;;;;;10.03;75.76;98132.19;5021361;28;20044;-76
2023/03/25 01:51:31;;;;;;;17.25;8.77;;;;;;;9.99;76.18;98125.59;5037628;28;20043;-76
2023/03/25 01:53:57;;;;;;;17.13;9.88;;;;;;;9.71;75.21;98116.81;5020868;28;20040;-78
2023/03/25 01:56:30;;;;;;;15.13;9.63;;;;;;;10.17;75.87;98112.75;5020815;28;20498;-79
2023/03/25 01:58:58;;;;;;;14.90;8.45;;;;;;;10.09;75.81;98102.28;5037644;28;20045;-79
2023/03/25 02:01:25;;;;;;;14.90;9.48;;;;;;;9.82;74.95;98094.25;5071757;28;20375;-78
2023/03/25 02:04:01;;;;;;;13.60;8.57;;;;;;;10.22;75.69;98091.75;5054517;28;20045;-78
2023/03/25 02:06:35;;;;;;;19.58;9.27;;;;;;;10.35;75.17;98085.72;5055270;28;20196;-77
2023/03/25 02:09:10;;;;;;;13.23;8.35;;;;;;;9.92;74.87;98090.28;5023512;28;20052;-78
2023/03/25 02:11:37;;;;;;;14.85;9.27;;;;;;;10.18;75.11;98095.81;5037457;28;20418;-78
2023/03/25 02:14:12;;;;;;;17.02;9.45;;;;;;;10.38;75.06;98106.56;5037335;28;20117;-78
2023/03/25 02:17:01;;;;;;;19.02;9.80;;;;;;;10.68;74.93;98089.41;5037526;28;20068;-80
2023/03/25 02:19:36;;;;;;;18.38;9.32;;;;;;;10.48;74.92;98088.47;5004211;28;20045;-78
2023/03/25 02:22:36;;;;;;;16.38;8.63;;;;;;;10.52;74.96;98088.91;5032702;28;20136;-78
2023/03/25 02:25:23;;;;;;;14.13;8.52;;;;;;;10.68;74.13;98097.38;5016658;28;20073;-80
2023/03/25 02:28:13;;;;;;;16.83;9.02;;;;;;;10.55;74.29;98086.66;5017129;28;20045;-79
2023/03/25 02:31:27;;;;;;;16.05;8.35;;;;;;;10.81;73.32;98083.34;5017161;28;21091;-79
2023/03/25 02:33:56;;;;;;;16.20;8.73;;;;;;;10.15;72.68;98077.63;4995788;28;20041;-79
2023/03/25 02:36:29;;;;;;;16.42;8.52;;;;;;;10.50;73.67;98056.44;5036982;28;20148;-79
2023/03/25 02:39:07;;;;;;;14.85;7.95;;;;;;;10.58;73.70;98058.94;5037204;28;20395;-80
2023/03/25 02:41:52;;;;;;;16.20;8.15;;;;;;;10.07;73.19;98055.75;5005668;28;20499;-78
2023/03/25 02:44:37;;;;;;;12.55;7.35;;;;;;;10.02;73.08;98043.00;5020887;28;20495;-81
2023/03/25 02:47:08;;;;;;;15.88;7.55;;;;;;;10.61;73.35;98039.97;5014198;28;20058;-79
2023/03/25 02:49:40;;;;;;;14.32;7.68;;;;;;;10.70;73.67;98042.22;5011766;28;20609;-81
2023/03/25 02:52:11;;;;;;;14.38;6.85;;;;;;;10.62;72.66;98044.25;5001236;28;20049;-79
2023/03/25 02:54:40;;;;;;;11.65;6.35;;;;;;;10.83;71.84;98036.16;5022654;28;20048;-80
2023/03/25 02:57:09;;;;;;;15.75;6.68;;;;;;;10.83;71.26;98014.91;5002256;28;20152;-82
2023/03/25 02:59:37;;;;;;;11.80;6.30;;;;;;;10.74;70.49;98024.06;4988523;28;20067;-82
2023/03/25 03:02:06;;;;;;;10.75;6.95;;;;;;;10.90;70.95;98024.53;5007916;28;20530;-83
2023/03/25 03:04:50;;;;;;;11.65;6.80;;;;;;;11.04;71.11;98022.78;5008013;28;20097;-82
2023/03/25 03:07:21;;;;;;;13.85;7.30;;;;;;;11.00;70.94;98013.53;5008013;28;20057;-82
2023/03/25 03:10:04;;;;;;;12.98;7.32;;;;;;;11.29;70.07;98031.81;5005629;28;20056;-79
2023/03/25 03:12:39;;;;;;;8.57;6.03;;;;;;;11.18;70.62;98024.41;4987094;28;20129;-75
2023/03/25 03:15:26;;;;;;;9.90;6.40;;;;;;;11.17;70.04;98013.00;5000622;28;20055;-75
2023/03/25 03:18:08;;;;;;;9.45;5.75;;;;;;;11.31;69.75;98003.19;5017548;28;20079;-75
2023/03/25 03:20:40;;;;;;;10.95;6.22;;;;;;;10.99;70.49;98001.28;4984537;28;20139;-77
2023/03/25 03:23:13;;;;;;;9.48;5.55;;;;;;;11.15;70.09;97985.78;5001010;28;20480;-75
2023/03/25 03:25:43;;;;;;;10.63;5.75;;;;;;;10.79;70.34;97990.63;5000978;28;20053;-77
2023/03/25 03:28:21;;;;;;;9.98;5.88;;;;;;;11.25;70.19;97986.22;5001359;28;20048;-75
2023/03/25 03:30:53;;;;;;;11.00;5.32;;;;;;;11.21;70.24;97966.38;5000802;28;20096;-75
2023/03/25 03:33:24;;;;;;;10.95;4.80;;;;;;;10.80;69.34;97962.19;5016773;28;20086;-76
2023/03/25 03:35:56;;;;;;;;;;;;;;;11.68;68.14;97978.72;4984552;28;20479;-75
2023/03/25 03:38:25;;;;;;;9.23;4.85;;;;;;;11.33;69.26;97990.53;4984835;28;20367;-75
2023/03/25 03:40:55;;;;;;;8.13;4.30;;;;;;;11.42;68.96;97968.84;5000761;28;20845;-76
2023/03/25 03:43:40;;;;;;;7.18;4.28;;;;;;;11.59;68.64;97963.97;5000704;28;20045;-78
2023/03/25 03:46:13;;;;;;;6.22;4.22;;;;;;;11.54;68.79;97966.41;5000462;28;20052;-76
2023/03/25 03:48:46;;;;;;;8.30;4.55;;;;;;;11.57;68.58;97950.06;5017006;28;20057;-75
2023/03/25 03:51:18;;;;;;;9.48;4.25;;;;;;;11.62;68.20;97948.44;5000530;28;20037;-77
2023/03/25 03:53:52;;;;;;;8.93;4.00;;;;;;;11.71;67.93;97936.59;5016557;28;20045;-78
2023/03/25 03:56:22;;;;;;;8.68;4.22;;;;;;;11.65;68.16;97942.69;5033643;28;20041;-78
2023/03/25 03:58:52;;;;;;;7.63;4.32;;;;;;;11.73;67.67;97928.41;4983570;28;20046;-74
2023/03/25 04:01:29;;;;;;;7.40;4.30;;;;;;;12.00;67.29;97929.97;4999914;28;20106;-74
2023/03/25 04:04:06;;;;;;;9.15;3.33;;;;;;;12.06;66.68;97918.50;5016317;28;20479;-74
2023/03/25 04:06:41;;;;;;;4.97;3.58;;;;;;;12.09;66.86;97939.38;5032415;28;20045;-74
2023/03/25 04:09:25;;;;;;;6.35;4.10;;;;;;;11.45;66.93;97919.78;4983588;28;20107;-77
2023/03/25 04:12:18;;;;;;;10.25;4.07;;;;;;;12.20;67.05;97928.09;4984477;28;20534;-78
2023/03/25 04:14:45;;;;;;;7.15;4.05;;;;;;;11.71;67.03;97933.94;5012525;28;20136;-80
2023/03/25 04:17:11;;;;;;;11.77;3.83;;;;;;;11.70;67.29;97924.28;4999620;28;20118;-80
2023/03/25 04:19:38;;;;;;;4.68;3.38;;;;;;;11.78;66.87;97933.91;5016329;28;20220;-79
2023/03/25 04:22:04;;;;;;;4.55;3.45;;;;;;;11.83;67.10;97918.97;4983493;28;20041;-81
2023/03/25 04:24:30;;;;;;;6.50;3.63;;;;;;;11.82;66.89;97924.50;5000310;28;20060;-79
2023/03/25 04:27:03;;;;;;;6.57;3.25;;;;;;;12.34;66.85;97916.38;4984166;28;20451;-84
2023/03/25 04:29:32;;;;;;;5.63;3.45;;;;;;;12.47;66.11;97900.31;5001476;28;20041;-85
2023/03/25 04:32:01;;;;;;;4.68;3.33;;;;;;;12.45;65.12;97893.59;5017344;28;20423;-84
2023/03/25 04:34:27;;;;;;;7.00;3.20;;;;;;;12.10;64.85;97906.41;5016654;28;20041;-84
2023/03/25 04:36:53;;;;;;;6.47;3.28;;;;;;;12.20;65.37;97893.50;5000076;28;20042;-82
2023/03/25 04:39:24;;;;;;;5.60;3.03;;;;;;;12.14;64.81;97878.38;4999452;28;20045;-83
2023/03/25 04:41:55;;;;;;;7.37;3.20;;;;;;;12.56;64.52;97869.75;5000179;28;20329;-78
2023/03/25 04:44:22;;;;;;;;;;;;;;;13.04;63.36;97878.09;5016245;28;20426;-80
2023/03/25 04:46:48;;;;;;;3.55;3.00;;;;;;;12.38;63.48;97884.84;4983091;28;19978;-77
2023/03/25 04:49:19;;;;;;;10.27;3.50;;;;;;;12.60;64.19;97831.03;4978431;28;20408;-76
2023/03/25 04:51:50;;;;;;;;;;;;;;;13.04;63.05;97876.25;4995254;28;20057;-78
2023/03/25 04:54:19;;;;;;;8.03;3.20;;;;;;;12.53;64.10;97859.53;4978570;28;20260;-79
2023/03/25 04:56:48;;;;;;;5.22;3.33;;;;;;;12.43;64.17;97869.84;5010490;28;20187;-79
2023/03/25 04:59:15;;;;;;;6.70;3.35;;;;;;;12.59;64.30;97855.22;5011514;28;20058;-79
2023/03/25 05:01:44;;;;;;;5.93;3.20;;;;;;;12.63;63.08;97867.06;4980815;28;20427;-79
2023/03/25 05:04:13;;;;;;;5.53;3.45;;;;;;;12.88;63.18;97878.59;4946399;28;20465;-81
2023/03/25 05:06:48;;;;;;;7.10;3.80;;;;;;;13.21;63.28;97860.53;5011272;28;20428;-76
2023/03/25 05:09:20;;;;;;;5.60;3.45;;;;;;;12.73;63.73;97849.56;5011098;28;20085;-76
2023/03/25 05:11:47;;;;;;;5.40;3.63;;;;;;;12.71;63.55;97854.31;4994455;28;20041;-80
2023/03/25 05:14:15;;;;;;;6.50;3.83;;;;;;;12.67;64.29;97863.75;4950162;28;20652;-79
2023/03/25 05:16:43;;;;;;;6.00;3.90;;;;;;;12.85;64.57;97857.72;4959004;28;20493;-83
2023/03/25 05:19:09;;;;;;;4.90;3.38;;;;;;;12.49;64.15;97858.34;4959083;28;20077;-80
2023/03/25 05:21:36;;;;;;;6.03;3.42;;;;;;;12.80;64.23;97863.69;4959671;28;20097;-74
2023/03/25 05:24:07;;;;;;;5.55;3.75;;;;;;;12.70;64.61;97852.69;4997747;28;20046;-82
2023/03/25 05:26:34;;;;;;;8.38;3.83;;;;;;;12.58;64.93;97854.41;4992146;28;20112;-79
2023/03/25 05:29:01;;;;;;;8.10;3.70;;;;;;;12.67;65.18;97871.75;4992453;28;20364;-77
2023/03/25 05:31:27;;;;;;;6.18;3.78;;;;;;;12.58;65.24;97873.03;4992495;28;20479;-80
2023/03/25 05:33:56;;;;;;;5.80;3.90;;;;;;;12.72;64.35;97852.47;4961050;28;20050;-72
2023/03/25 05:36:25;;;;;;;7.63;3.90;;;;;;;13.11;64.57;97849.56;4959739;28;20065;-72
2023/03/25 05:38:55;;;;;;;6.53;3.80;;;;;;;12.74;63.80;97869.06;4937593;29;20050;-74
2023/03/25 05:41:31;;;;;;;11.55;4.53;;;;;;;12.89;63.93;97896.19;4919961;28;20074;-75
2023/03/25 05:43:59;;;;;;;6.72;3.90;;;;;;;12.93;64.20;97887.56;4935600;29;20137;-69
2023/03/25 05:46:25;;;;;;;5.57;3.70;;;;;;;13.22;63.01;97870.97;4907700;28;20113;-69
2023/03/25 05:48:51;;;;;;;7.35;4.25;;;;;;;13.01;63.00;97882.00;4972901;28;20042;-67
2023/03/25 05:51:20;;;;;;;5.95;4.15;;;;;;;13.20;63.17;97865.06;4956798;28;20503;-69
2023/03/25 05:53:48;;;;;;;6.93;4.80;;;;;;;13.26;63.38;97845.53;4973282;28;20038;-69
2023/03/25 05:56:16;;;;;;;8.38;4.38;;;;;;;13.43;63.34;97845.78;4967704;28;20048;-67
2023/03/25 05:58:43;;;;;;;7.45;5.50;;;;;;;13.42;62.84;97860.16;4972799;28;20117;-69
2023/03/25 06:01:15;;;;;;;7.57;4.47;;;;;;;13.57;63.74;97840.13;4940407;28;20046;-68
2023/03/25 06:03:42;;;;;;;6.65;4.35;;;;;;;13.44;63.17;97834.91;4941219;28;20512;-67
2023/03/25 06:06:12;;;;;;;8.65;5.10;;;;;;;13.49;62.75;97824.41;4972580;28;20125;-68
2023/03/25 06:08:45;;;;;;;8.23;4.88;;;;;;;13.72;63.14;97849.59;4976884;28;20039;-66
2023/03/25 06:11:15;;;;;;;8.25;5.20;;;;;;;13.36;63.03;97839.72;4945959;28;20046;-66
2023/03/25 06:13:41;;;;;;;7.13;4.82;;;;;;;13.50;62.91;97854.53;4968145;28;20532;-65
2023/03/25 06:16:08;;;;;;;8.10;5.32;;;;;;;13.65;63.24;97846.19;5007295;28;20483;-68
2023/03/25 06:18:35;;;;;;;8.20;5.10;;;;;;;13.58;63.47;97841.75;4996846;28;20037;-69
2023/03/25 06:21:02;;;;;;;9.63;5.97;;;;;;;13.70;62.83;97841.03;4996323;28;20052;-69
2023/03/25 06:23:27;;;;;;;11.25;5.63;;;;;;;13.81;62.22;97834.97;4980056;28;20049;-68
2023/03/25 06:25:54;;;;;;;9.80;6.00;;;;;;;14.09;61.65;97844.06;4947667;28;20034;-68
2023/03/25 06:28:22;;;;;;;11.95;5.93;;;;;;;14.17;60.72;97829.59;4970835;28;20045;-67
2023/03/25 06:30:48;;;;;;;9.52;6.13;;;;;;;14.41;60.53;97829.50;5036179;28;20056;-73
2023/03/25 06:33:14;;;;;;;9.50;6.40;;;;;;;14.43;60.16;97826.59;5003268;28;20048;-69
2023/03/25 06:35:44;;;;;;;10.35;6.75;;;;;;;14.40;60.29;97832.41;5004763;28;20041;-70
2023/03/25 06:38:09;;;;;;;13.50;7.68;;;;;;;14.25;61.31;97810.63;5056726;28;20044;-70
2023/03/25 06:41:02;;;;;;;12.70;7.20;;;;;;;14.52;60.93;97817.22;5020580;28;20122;-70
2023/03/25 06:43:28;;;;;;;11.15;6.18;;;;;;;14.36;60.67;97826.69;5019275;28;20041;-71
2023/03/25 06:46:09;;;;;;;12.38;6.05;;;;;;;14.39;60.51;97807.53;5036619;28;20056;-70
2023/03/25 06:48:54;;;;;;;11.07;5.90;;;;;;;14.52;60.44;97817.22;5006267;28;20124;-70
2023/03/25 06:51:21;;;;;;;9.50;5.75;;;;;;;14.61;60.64;97806.00;5035616;28;20198;-70
2023/03/25 06:53:47;;;;;;;9.98;6.22;;;;;;;14.55;61.22;97803.41;5019628;28;20044;-70
2023/03/25 06:56:13;;;;;;;10.27;6.43;;;;;;;14.55;61.03;97803.41;5003387;28;20041;-68
2023/03/25 06:58:40;;;;;;;10.20;6.55;;;;;;;14.78;61.27;97801.63;5019531;28;20055;-69
2023/03/25 07:01:08;;;;;;;11.07;6.82;;;;;;;14.86;60.85;97803.16;5036427;28;20071;-70
2023/03/25 07:03:36;;;;;;;12.82;6.72;;;;;;;14.98;61.21;97795.97;5020157;28;20365;-69
2023/03/25 07:06:08;;;;;;;15.02;7.05;;;;;;;14.64;61.56;97783.34;5035943;28;20132;-70
2023/03/25 07:08:34;;;;;;;11.60;6.70;;;;;;;14.89;60.69;97797.34;5015221;28;20045;-70
2023/03/25 07:11:03;;;;;;;11.40;6.93;;;;;;;15.04;61.17;97798.53;5002808;28;20033;-68
2023/03/25 07:13:30;;;;;;;10.20;6.53;;;;;;;14.88;60.92;97790.41;5029690;28;20369;-70
2023/03/25 07:15:58;;;;;;;11.82;6.70;;;;;;;14.98;61.09;97782.59;4998452;28;20049;-69
2023/03/25 07:18:24;;;;;;;11.93;6.82;;;;;;;14.93;60.79;97791.31;4998305;28;20439;-69
2023/03/25 07:20:50;;;;;;;10.18;6.90;;;;;;;14.89;60.98;97808.03;4996758;28;20460;-68
2023/03/25 07:23:16;;;;;;;11.85;6.88;;;;;;;14.86;61.58;97805.84;4981867;28;20052;-70
2023/03/25 07:25:41;;;;;;;16.27;6.97;;;;;;;14.84;61.86;97784.69;4983253;28;20494;-68
2023/03/25 07:28:07;;;;;;;8.15;6.20;;;;;;;14.84;62.11;97790.03;4983172;28;20604;-70
2023/03/25 07:30:38;;;;;;;;;;;;;;;15.44;61.86;97787.22;4985088;28;20042;-69
2023/03/25 07:33:04;;;;;;;10.65;6.68;;;;;;;14.85;61.95;97798.88;4983318;28;19924;-69
2023/03/25 07:35:29;;;;;;;9.68;6.60;;;;;;;14.84;61.98;97792.69;4999575;28;20045;-69
2023/03/25 07:37:55;;;;;;;10.38;6.85;;;;;;;14.88;62.21;97793.84;5000652;28;20387;-69
2023/03/25 07:40:21;;;;;;;11.77;6.30;;;;;;;14.80;62.72;97793.38;4984403;28;20045;-69
2023/03/25 07:42:46;;;;;;;11.00;6.80;;;;;;;14.82;62.65;97777.94;5034161;28;20085;-69
2023/03/25 07:45:35;;;;;;;12.43;6.72;;;;;;;14.97;62.04;97792.50;5020131;28;20041;-69
2023/03/25 07:48:01;;;;;;;11.40;7.18;;;;;;;14.83;62.40;97774.22;4984150;28;20395;-69
2023/03/25 07:50:27;;;;;;;10.80;6.68;;;;;;;15.21;62.34;97775.44;5000502;28;20069;-69
2023/03/25 07:52:53;;;;;;;14.55;7.28;;;;;;;15.30;61.42;97775.88;4983839;28;20487;-68
2023/03/25 07:55:19;;;;;;;11.15;6.80;;;;;;;15.14;61.19;97789.97;4982853;28;20048;-69
2023/03/25 07:57:45;;;;;;;8.75;6.68;;;;;;;15.28;61.60;97780.66;5031718;28;20060;-70
2023/03/25 08:00:14;;;;;;;11.82;7.25;;;;;;;15.50;61.23;97783.59;4982429;28;20483;-68
2023/03/25 08:02:40;;;;;;;15.10;6.68;;;;;;;15.33;61.00;97780.75;5032488;28;20387;-70
2023/03/25 08:05:06;;;;;;;11.13;7.38;;;;;;;15.44;61.93;97800.59;5032832;28;20367;-69
2023/03/25 08:07:32;;;;;;;11.90;7.13;;;;;;;15.67;60.65;97782.63;4998493;28;20041;-69
2023/03/25 08:09:58;;;;;;;10.35;6.68;;;;;;;15.42;61.32;97782.09;4997115;28;20987;-69
2023/03/25 08:12:24;;;;;;;10.95;7.15;;;;;;;15.46;62.07;97782.41;4959742;28;20137;-69
2023/03/25 08:14:49;;;;;;;9.88;6.82;;;;;;;15.15;62.92;97797.75;4993457;28;20049;-69
2023/03/25 08:17:16;;;;;;;15.07;7.63;;;;;;;14.99;64.09;97819.00;4998343;28;20142;-69
2023/03/25 08:19:41;;;;;;;10.57;7.13;;;;;;;15.04;64.96;97803.06;5031476;28;20510;-69
2023/03/25 08:22:08;;;;;;;15.88;7.38;;;;;;;15.42;64.99;97798.16;4998318;28;20037;-69
2023/03/25 08:24:34;;;;;;;12.43;6.97;;;;;;;15.19;64.85;97814.16;5015353;28;20495;-69
2023/03/25 08:27:00;;;;;;;12.93;8.52;;;;;;;15.23;64.23;97781.38;5015148;28;20049;-69
2023/03/25 08:29:26;;;;;;;13.73;7.45;;;;;;;15.24;65.72;97788.34;4979145;28;20041;-69
2023/03/25 08:31:52;;;;;;;14.75;8.57;;;;;;;14.96;66.67;97801.53;4981032;28;20038;-69
2023/03/25 08:34:20;;;;;;;12.45;8.07;;;;;;;15.48;66.31;97786.50;5014402;28;20136;-69
2023/03/25 08:36:45;;;;;;;13.20;8.55;;;;;;;15.10;67.12;97800.28;5015135;28;20195;-69
2023/03/25 08:39:16;;;;;;;12.43;8.13;;;;;;;15.32;67.41;97789.03;4998061;28;20064;-68
2023/03/25 08:41:42;;;;;;;12.68;8.35;;;;;;;15.51;67.25;97801.28;4995636;28;20041;-69
2023/03/25 08:44:08;;;;;;;10.95;8.48;;;;;;;15.24;69.06;97798.22;5014329;28;20128;-67
2023/03/25 08:46:35;;;;;;;13.85;8.93;;;;;;;15.14;69.26;97798.78;5012515;28;20658;-67
2023/03/25 08:49:01;;;;;;;16.80;9.93;;;;;;;15.28;69.50;97808.19;5014282;28;20052;-67
2023/03/25 08:51:27;;;;;;;14.95;9.93;;;;;;;15.06;70.02;97801.00;5031810;28;20045;-67
2023/03/25 08:53:53;;;;;;;16.52;9.88;;;;;;;14.96;70.28;97817.59;4997284;28;20387;-67
2023/03/25 08:56:19;;;;;;;17.75;9.65;;;;;;;14.95;70.01;97799.94;4981366;28;20395;-68
2023/03/25 08:58:45;;;;;;;20.83;10.63;;;;;;;14.81;71.48;97803.03;5013498;28;20490;-68
2023/03/25 09:01:10;;;;;;;15.43;10.55;;;;;;;14.82;71.86;97797.44;4997681;28;20605;-69
2023/03/25 09:03:37;;;;;;;17.95;11.38;;;;;;;14.99;71.53;97805.63;5008915;28;20128;-69
2023/03/25 09:06:13;;;;;;;19.63;10.68;;;;;;;15.02;72.71;97808.66;5014121;28;20067;-68
2023/03/25 09:08:39;;;;;;;16.65;10.70;;;;;;;14.98;71.73;97806.66;5030131;28;20038;-69
2023/03/25 09:11:07;;;;;;;20.98;11.93;;;;;;;15.00;72.23;97807.25;5009751;28;20132;-70
2023/03/25 09:13:34;;;;;;;16.25;10.57;;;;;;;14.84;72.84;97800.72;5017253;28;20148;-68
2023/03/25 09:16:00;;;;;;;19.23;11.98;;;;;;;15.05;72.50;97794.03;4998596;28;20132;-66
2023/03/25 09:18:27;;;;;;;21.38;12.50;;;;;;;15.22;72.01;97798.44;5015058;28;20053;-68
2023/03/25 09:20:57;;;;;;;19.27;12.50;;;;;;;15.64;72.46;97807.19;4998595;28;20406;-71
2023/03/25 09:23:23;;;;;;;18.42;12.32;;;;;;;15.41;71.26;97799.16;5004265;28;20053;-70
2023/03/25 09:25:49;;;;;;;22.02;12.50;;;;;;;15.34;71.76;97785.09;4998621;28;20049;-70
2023/03/25 09:28:15;;;;;;;18.83;12.32;;;;;;;15.48;70.96;97802.56;5031216;28;20053;-70
2023/03/25 09:30:40;;;;;;;21.42;12.05;;;;;;;15.35;71.17;97796.56;5014605;28;20041;-69
2023/03/25 09:33:06;;;;;;;21.80;13.25;;;;;;;15.57;71.06;97795.81;4998364;28;20110;-68
2023/03/25 09:35:32;;;;;;;20.77;12.73;;;;;;;15.05;72.40;97802.03;5014560;28;20073;-68
2023/03/25 09:37:58;;;;;;;22.20;12.23;;;;;;;15.56;71.50;97802.19;4998212;28;20446;-70
2023/03/25 09:40:24;;;;;;;17.20;11.88;;;;;;;15.78;70.32;97805.91;5032021;28;20037;-72
2023/03/25 09:42:57;;;;;;;23.73;12.45;;;;;;;15.78;70.19;97813.94;5029689;28;20056;-69
2023/03/25 09:45:46;;;;;;;15.35;10.85;;;;;;;16.25;70.85;97809.28;4997099;28;20049;-70
2023/03/25 09:48:33;;;;;;;21.42;12.68;;;;;;;16.21;71.41;97819.66;4997783;28;20395;-71
2023/03/25 09:51:03;;;;;;;19.38;12.40;;;;;;;16.09;70.66;97821.56;5030209;28;20042;-70
2023/03/25 09:53:39;;;;;;;21.73;13.43;;;;;;;16.39;70.58;97824.81;4981637;28;20111;-70
2023/03/25 09:56:09;;;;;;;23.83;13.00;;;;;;;16.07;70.57;97836.22;4997943;28;20088;-71
2023/03/25 09:58:39;;;;;;;22.75;11.80;;;;;;;16.06;71.70;97835.41;4994645;28;20055;-71
2023/03/25 10:01:31;;;;;;;17.58;12.27;;;;;;;16.45;70.88;97833.81;4994197;28;20120;-71
2023/03/25 10:04:15;;;;;;;17.35;11.57;;;;;;;16.60;69.88;97840.28;5011048;28;20420;-70
2023/03/25 10:07:20;;;;;;;20.20;11.45;;;;;;;16.51;69.29;97840.91;4994501;28;20484;-70
2023/03/25 10:09:51;;;;;;;16.10;10.75;;;;;;;16.71;68.55;97836.72;5007686;28;20050;-69
2023/03/25 10:12:38;;;;;;;16.95;10.77;;;;;;;16.88;68.23;97842.91;4989597;28;20049;-69
2023/03/25 10:15:13;;;;;;;20.38;10.35;;;;;;;16.59;68.99;97841.31;5009429;28;20053;-72
2023/03/25 10:18:17;;;;;;;17.00;10.32;;;;;;;16.79;67.98;97846.22;4993632;28;20100;-69
2023/03/25 10:20:50;;;;;;;15.27;9.73;;;;;;;17.04;66.46;97851.22;4949689;28;20129;-70
2023/03/25 10:24:00;;;;;;;14.88;9.73;;;;;;;17.23;66.07;97849.97;4931141;29;20043;-69
2023/03/25 10:26:37;;;;;;;15.43;9.45;;;;;;;16.88;66.17;97852.84;4914810;29;20058;-69
2023/03/25 10:29:05;;;;;;;12.38;8.80;;;;;;;17.10;65.18;97859.13;4915568;29;20168;-71
2023/03/25 10:31:34;;;;;;;15.75;9.77;;;;;;;17.09;65.23;97845.97;4930998;29;20094;-70
2023/03/25 10:34:07;;;;;;;14.90;9.05;;;;;;;17.02;66.01;97845.31;4931101;29;20044;-69
2023/03/25 10:36:38;;;;;;;15.40;9.93;;;;;;;16.98;66.26;97854.88;4932149;28;20084;-69
2023/03/25 10:39:12;;;;;;;15.98;10.10;;;;;;;17.15;64.46;97855.72;4979098;28;20069;-69
2023/03/25 10:41:38;;;;;;;14.23;9.82;;;;;;;16.79;65.01;97859.63;4990459;28;20038;-70
2023/03/25 10:44:11;;;;;;;13.45;9.07;;;;;;;16.87;65.90;97853.09;4957858;28;20404;-69
2023/03/25 10:47:00;;;;;;;15.57;9.85;;;;;;;17.19;65.30;97854.19;4975007;28;20112;-70
2023/03/25 10:49:35;;;;;;;14.27;9.73;;;;;;;16.96;65.52;97855.13;4927486;28;20161;-68
2023/03/25 10:52:26;;;;;;;15.85;9.52;;;;;;;16.55;65.99;97844.72;4965230;28;20115;-70
2023/03/25 10:54:53;;;;;;;21.13;11.90;;;;;;;16.75;66.14;97829.00;4975182;28;20049;-72
2023/03/25 10:57:23;;;;;;;19.02;9.98;;;;;;;16.75;66.00;97850.47;4959949;28;20106;-68
2023/03/25 10:59:49;;;;;;;20.13;10.98;;;;;;;16.36;66.49;97843.25;4976215;28;20053;-68
2023/03/25 11:02:20;;;;;;;15.77;9.90;;;;;;;16.71;66.95;97835.91;4976048;28;20455;-68
2023/03/25 11:04:47;;;;;;;;;;;;;;;16.95;66.35;97852.69;4992280;28;20053;-69
2023/03/25 11:07:18;;;;;;;16.50;9.68;;;;;;;16.64;67.63;97843.28;4960169;28;19992;-69
2023/03/25 11:09:44;;;;;;;20.95;10.68;;;;;;;16.14;67.73;97851.13;4976224;28;20054;-68
2023/03/25 11:12:09;;;;;;;16.05;11.00;;;;;;;16.17;67.38;97825.72;4948274;28;20050;-67
2023/03/25 11:14:38;;;;;;;22.30;10.88;;;;;;;16.40;68.09;97855.94;4973793;28;20053;-68
2023/03/25 11:17:13;;;;;;;16.52;10.77;;;;;;;16.44;68.73;97853.59;4995359;28;20042;-68
2023/03/25 11:19:41;;;;;;;23.08;12.25;;;;;;;16.34;69.09;97862.25;5012766;28;20054;-67
2023/03/25 11:22:11;;;;;;;18.75;12.25;;;;;;;16.56;68.12;97857.06;4996853;28;20042;-68
2023/03/25 11:24:47;;;;;;;17.90;11.27;;;;;;;16.82;67.69;97848.47;5012531;28;20050;-67
2023/03/25 11:27:23;;;;;;;17.88;11.60;;;;;;;16.96;66.98;97851.66;5012662;28;20046;-69
2023/03/25 11:29:54;;;;;;;15.75;10.75;;;;;;;16.76;67.30;97849.41;5012476;28;20095;-68
2023/03/25 11:32:32;;;;;;;17.77;11.35;;;;;;;16.82;67.25;97835.84;4980005;28;20042;-68
2023/03/25 11:35:02;;;;;;;18.85;10.90;;;;;;;16.54;68.07;97835.84;5012010;28;20045;-69
2023/03/25 11:37:32;;;;;;;19.17;11.13;;;;;;;16.54;66.79;97835.84;5012022;28;20420;-67
2023/03/25 11:40:05;;;;;;;14.57;10.07;;;;;;;16.64;67.40;97824.50;5014769;28;20376;-67
2023/03/25 11:42:36;;;;;;;16.88;10.45;;;;;;;16.90;66.82;97839.22;5015263;28;20052;-68
2023/03/25 11:45:02;;;;;;;19.67;11.20;;;;;;;16.60;65.88;97840.28;5015537;28;20260;-70